sensor_id;sensor_type;location;lat;lon;timestamp;P1;durP1;ratioP1;P2;durP2;ratioP2
13973;SDS011;7060;43.770;4.008;2023-02-15T00:00:24;20.60;;;15.43;;
13973;SDS011;7060;43.770;4.008;2023-02-15T00:02:53;19.20;;;14.97;;
13973;SDS011;7060;43.770;4.008;2023-02-15T00:05:22;18.13;;;14.37;;
13973;SDS011;7060;43.770;4.008;2023-02-15T00:07:50;17.87;;;14.53;;
13973;SDS011;7060;43.770;4.008;2023-02-15T00:10:18;19.83;;;14.93;;
13973;SDS011;7060;43.770;4.008;2023-02-15T00:12:47;18.83;;;14.53;;
13973;SDS011;7060;43.770;4.008;2023-02-15T00:15:15;19.07;;;14.00;;
13973;SDS011;7060;43.770;4.008;2023-02-15T00:17:45;21.73;;;15.80;;
13973;SDS011;7060;43.770;4.008;2023-02-15T00:20:14;17.43;;;14.30;;
13973;SDS011;7060;43.770;4.008;2023-02-15T00:22:42;20.60;;;15.43;;
13973;SDS011;7060;43.770;4.008;2023-02-15T00:25:10;20.67;;;14.67;;
13973;SDS011;7060;43.770;4.008;2023-02-15T00:27:39;20.87;;;15.70;;
13973;SDS011;7060;43.770;4.008;2023-02-15T00:30:08;19.57;;;15.23;;
13973;SDS011;7060;43.770;4.008;2023-02-15T00:32:37;21.87;;;15.67;;
13973;SDS011;7060;43.770;4.008;2023-02-15T00:35:07;22.10;;;14.60;;
13973;SDS011;7060;43.770;4.008;2023-02-15T00:37:35;21.47;;;16.00;;
13973;SDS011;7060;43.770;4.008;2023-02-15T00:40:04;21.93;;;15.53;;
13973;SDS011;7060;43.770;4.008;2023-02-15T00:42:34;21.63;;;15.93;;
13973;SDS011;7060;43.770;4.008;2023-02-15T00:45:02;24.77;;;16.73;;
13973;SDS011;7060;43.770;4.008;2023-02-15T00:47:31;24.00;;;16.90;;
13973;SDS011;7060;43.770;4.008;2023-02-15T00:50:00;19.83;;;15.63;;
13973;SDS011;7060;43.770;4.008;2023-02-15T00:52:31;22.23;;;16.77;;
13973;SDS011;7060;43.770;4.008;2023-02-15T00:55:02;21.90;;;17.10;;
13973;SDS011;7060;43.770;4.008;2023-02-15T00:57:30;22.73;;;16.53;;
13973;SDS011;7060;43.770;4.008;2023-02-15T00:59:59;26.70;;;19.07;;
13973;SDS011;7060;43.770;4.008;2023-02-15T01:02:27;26.40;;;18.17;;
13973;SDS011;7060;43.770;4.008;2023-02-15T01:04:56;25.73;;;18.17;;
13973;SDS011;7060;43.770;4.008;2023-02-15T01:07:24;25.23;;;17.27;;
13973;SDS011;7060;43.770;4.008;2023-02-15T01:09:54;21.03;;;17.47;;
13973;SDS011;7060;43.770;4.008;2023-02-15T01:12:22;23.50;;;17.80;;
13973;SDS011;7060;43.770;4.008;2023-02-15T01:14:51;20.10;;;16.13;;
13973;SDS011;7060;43.770;4.008;2023-02-15T01:17:19;22.70;;;17.13;;
13973;SDS011;7060;43.770;4.008;2023-02-15T01:19:47;24.80;;;17.47;;
13973;SDS011;7060;43.770;4.008;2023-02-15T01:22:18;27.87;;;18.33;;
13973;SDS011;7060;43.770;4.008;2023-02-15T01:24:48;19.50;;;15.67;;
13973;SDS011;7060;43.770;4.008;2023-02-15T01:27:18;20.03;;;15.37;;
13973;SDS011;7060;43.770;4.008;2023-02-15T01:29:47;19.60;;;15.33;;
13973;SDS011;7060;43.770;4.008;2023-02-15T01:32:15;21.53;;;16.17;;
13973;SDS011;7060;43.770;4.008;2023-02-15T01:34:44;18.87;;;15.47;;
13973;SDS011;7060;43.770;4.008;2023-02-15T01:37:12;18.70;;;15.73;;
13973;SDS011;7060;43.770;4.008;2023-02-15T01:39:41;22.07;;;15.53;;
13973;SDS011;7060;43.770;4.008;2023-02-15T01:42:10;19.63;;;15.47;;
13973;SDS011;7060;43.770;4.008;2023-02-15T01:44:50;19.00;;;14.83;;
13973;SDS011;7060;43.770;4.008;2023-02-15T01:47:21;19.23;;;15.27;;
13973;SDS011;7060;43.770;4.008;2023-02-15T01:49:57;20.63;;;15.53;;
13973;SDS011;7060;43.770;4.008;2023-02-15T01:52:30;18.37;;;14.40;;
13973;SDS011;7060;43.770;4.008;2023-02-15T01:54:58;17.57;;;14.30;;
13973;SDS011;7060;43.770;4.008;2023-02-15T01:57:28;22.50;;;16.00;;
13973;SDS011;7060;43.770;4.008;2023-02-15T01:59:59;22.13;;;15.83;;
13973;SDS011;7060;43.770;4.008;2023-02-15T02:02:40;25.27;;;16.07;;
13973;SDS011;7060;43.770;4.008;2023-02-15T02:05:14;20.03;;;15.03;;
13973;SDS011;7060;43.770;4.008;2023-02-15T02:07:44;20.17;;;15.27;;
13973;SDS011;7060;43.770;4.008;2023-02-15T02:10:15;20.50;;;15.40;;
13973;SDS011;7060;43.770;4.008;2023-02-15T02:12:46;22.53;;;16.60;;
13973;SDS011;7060;43.770;4.008;2023-02-15T02:15:18;18.73;;;14.27;;
13973;SDS011;7060;43.770;4.008;2023-02-15T02:18:00;20.37;;;15.20;;
13973;SDS011;7060;43.770;4.008;2023-02-15T02:20:59;22.20;;;14.30;;
13973;SDS011;7060;43.770;4.008;2023-02-15T02:23:44;20.37;;;14.20;;
13973;SDS011;7060;43.770;4.008;2023-02-15T02:29:37;22.23;;;15.83;;
13973;SDS011;7060;43.770;4.008;2023-02-15T02:35:18;17.77;;;14.10;;
13973;SDS011;7060;43.770;4.008;2023-02-15T02:37:57;24.63;;;17.53;;
13973;SDS011;7060;43.770;4.008;2023-02-15T02:40:37;21.93;;;16.73;;
13973;SDS011;7060;43.770;4.008;2023-02-15T02:43:15;23.47;;;16.03;;
13973;SDS011;7060;43.770;4.008;2023-02-15T02:45:50;19.73;;;15.23;;
13973;SDS011;7060;43.770;4.008;2023-02-15T02:48:25;19.50;;;14.80;;
13973;SDS011;7060;43.770;4.008;2023-02-15T02:50:57;19.07;;;15.13;;
13973;SDS011;7060;43.770;4.008;2023-02-15T02:53:25;19.10;;;14.87;;
13973;SDS011;7060;43.770;4.008;2023-02-15T02:55:56;20.77;;;15.73;;
13973;SDS011;7060;43.770;4.008;2023-02-15T02:58:29;20.70;;;14.57;;
13973;SDS011;7060;43.770;4.008;2023-02-15T03:01:03;20.93;;;15.07;;
13973;SDS011;7060;43.770;4.008;2023-02-15T03:03:40;19.77;;;14.73;;
13973;SDS011;7060;43.770;4.008;2023-02-15T03:06:11;21.13;;;15.23;;
13973;SDS011;7060;43.770;4.008;2023-02-15T03:08:45;22.30;;;15.63;;
13973;SDS011;7060;43.770;4.008;2023-02-15T03:11:16;19.20;;;15.43;;
13973;SDS011;7060;43.770;4.008;2023-02-15T03:13:45;21.80;;;15.20;;
13973;SDS011;7060;43.770;4.008;2023-02-15T03:16:16;19.63;;;15.57;;
13973;SDS011;7060;43.770;4.008;2023-02-15T03:18:56;20.90;;;14.80;;
13973;SDS011;7060;43.770;4.008;2023-02-15T03:21:31;19.57;;;14.70;;
13973;SDS011;7060;43.770;4.008;2023-02-15T03:24:07;20.03;;;15.30;;
13973;SDS011;7060;43.770;4.008;2023-02-15T03:26:41;20.07;;;14.40;;
13973;SDS011;7060;43.770;4.008;2023-02-15T03:29:13;20.67;;;15.87;;
13973;SDS011;7060;43.770;4.008;2023-02-15T03:31:44;21.07;;;15.57;;
13973;SDS011;7060;43.770;4.008;2023-02-15T03:34:18;19.00;;;15.53;;
13973;SDS011;7060;43.770;4.008;2023-02-15T03:36:47;20.63;;;14.50;;
13973;SDS011;7060;43.770;4.008;2023-02-15T03:39:22;19.50;;;15.20;;
13973;SDS011;7060;43.770;4.008;2023-02-15T03:41:58;21.37;;;14.93;;
13973;SDS011;7060;43.770;4.008;2023-02-15T03:44:39;20.97;;;14.53;;
13973;SDS011;7060;43.770;4.008;2023-02-15T03:47:15;17.57;;;13.90;;
13973;SDS011;7060;43.770;4.008;2023-02-15T03:49:50;16.80;;;13.97;;
13973;SDS011;7060;43.770;4.008;2023-02-15T03:52:23;21.87;;;15.33;;
13973;SDS011;7060;43.770;4.008;2023-02-15T03:54:51;18.83;;;14.80;;
13973;SDS011;7060;43.770;4.008;2023-02-15T03:57:23;20.13;;;16.33;;
13973;SDS011;7060;43.770;4.008;2023-02-15T04:00:12;19.60;;;15.63;;
13973;SDS011;7060;43.770;4.008;2023-02-15T04:03:15;17.07;;;13.97;;
13973;SDS011;7060;43.770;4.008;2023-02-15T04:05:52;18.30;;;13.37;;
13973;SDS011;7060;43.770;4.008;2023-02-15T04:08:20;19.50;;;13.73;;
13973;SDS011;7060;43.770;4.008;2023-02-15T04:11:09;17.70;;;14.30;;
13973;SDS011;7060;43.770;4.008;2023-02-15T04:13:37;16.43;;;13.80;;
13973;SDS011;7060;43.770;4.008;2023-02-15T04:16:06;18.23;;;14.90;;
13973;SDS011;7060;43.770;4.008;2023-02-15T04:18:37;20.03;;;15.03;;
13973;SDS011;7060;43.770;4.008;2023-02-15T04:21:27;17.17;;;13.77;;
13973;SDS011;7060;43.770;4.008;2023-02-15T04:24:14;17.70;;;14.47;;
13973;SDS011;7060;43.770;4.008;2023-02-15T04:27:00;18.10;;;15.23;;
13973;SDS011;7060;43.770;4.008;2023-02-15T04:29:30;17.77;;;14.63;;
13973;SDS011;7060;43.770;4.008;2023-02-15T04:32:00;18.33;;;14.10;;
13973;SDS011;7060;43.770;4.008;2023-02-15T04:34:29;17.47;;;14.70;;
13973;SDS011;7060;43.770;4.008;2023-02-15T04:36:59;16.80;;;14.37;;
13973;SDS011;7060;43.770;4.008;2023-02-15T04:39:27;19.13;;;14.70;;
13973;SDS011;7060;43.770;4.008;2023-02-15T04:41:56;17.03;;;15.07;;
13973;SDS011;7060;43.770;4.008;2023-02-15T04:44:25;18.57;;;13.90;;
13973;SDS011;7060;43.770;4.008;2023-02-15T04:46:53;17.45;;;14.35;;
13973;SDS011;7060;43.770;4.008;2023-02-15T04:49:22;17.43;;;14.53;;
13973;SDS011;7060;43.770;4.008;2023-02-15T04:51:50;16.67;;;13.93;;
13973;SDS011;7060;43.770;4.008;2023-02-15T04:54:20;19.53;;;16.00;;
13973;SDS011;7060;43.770;4.008;2023-02-15T04:56:49;17.60;;;14.70;;
13973;SDS011;7060;43.770;4.008;2023-02-15T04:59:17;24.47;;;16.33;;
13973;SDS011;7060;43.770;4.008;2023-02-15T05:01:46;19.40;;;16.33;;
13973;SDS011;7060;43.770;4.008;2023-02-15T05:04:14;19.80;;;15.63;;
13973;SDS011;7060;43.770;4.008;2023-02-15T05:06:42;17.90;;;14.77;;
13973;SDS011;7060;43.770;4.008;2023-02-15T05:09:11;21.83;;;15.47;;
13973;SDS011;7060;43.770;4.008;2023-02-15T05:11:41;16.23;;;14.03;;
13973;SDS011;7060;43.770;4.008;2023-02-15T05:14:10;18.80;;;14.83;;
13973;SDS011;7060;43.770;4.008;2023-02-15T05:16:38;18.73;;;13.83;;
13973;SDS011;7060;43.770;4.008;2023-02-15T05:19:07;16.63;;;13.67;;
13973;SDS011;7060;43.770;4.008;2023-02-15T05:21:35;20.17;;;13.90;;
13973;SDS011;7060;43.770;4.008;2023-02-15T05:24:04;17.80;;;13.03;;
13973;SDS011;7060;43.770;4.008;2023-02-15T05:26:55;17.17;;;14.70;;
13973;SDS011;7060;43.770;4.008;2023-02-15T05:29:41;16.97;;;13.23;;
13973;SDS011;7060;43.770;4.008;2023-02-15T05:32:12;19.33;;;13.47;;
13973;SDS011;7060;43.770;4.008;2023-02-15T05:34:41;17.57;;;13.00;;
13973;SDS011;7060;43.770;4.008;2023-02-15T05:37:09;18.77;;;13.37;;
13973;SDS011;7060;43.770;4.008;2023-02-15T05:39:37;15.50;;;13.13;;
13973;SDS011;7060;43.770;4.008;2023-02-15T05:42:07;19.30;;;14.13;;
13973;SDS011;7060;43.770;4.008;2023-02-15T05:44:36;17.43;;;13.13;;
13973;SDS011;7060;43.770;4.008;2023-02-15T05:47:04;18.70;;;13.60;;
13973;SDS011;7060;43.770;4.008;2023-02-15T05:49:34;17.60;;;12.93;;
13973;SDS011;7060;43.770;4.008;2023-02-15T05:52:02;16.23;;;13.00;;
13973;SDS011;7060;43.770;4.008;2023-02-15T05:54:31;14.97;;;11.93;;
13973;SDS011;7060;43.770;4.008;2023-02-15T05:56:59;15.83;;;12.30;;
13973;SDS011;7060;43.770;4.008;2023-02-15T05:59:29;18.63;;;13.57;;
13973;SDS011;7060;43.770;4.008;2023-02-15T06:01:58;16.30;;;13.47;;
13973;SDS011;7060;43.770;4.008;2023-02-15T06:04:27;16.97;;;13.37;;
13973;SDS011;7060;43.770;4.008;2023-02-15T06:06:56;17.73;;;13.67;;
13973;SDS011;7060;43.770;4.008;2023-02-15T06:09:24;15.83;;;13.13;;
13973;SDS011;7060;43.770;4.008;2023-02-15T06:11:54;15.30;;;12.73;;
13973;SDS011;7060;43.770;4.008;2023-02-15T06:14:22;14.43;;;12.03;;
13973;SDS011;7060;43.770;4.008;2023-02-15T06:16:52;15.47;;;12.80;;
13973;SDS011;7060;43.770;4.008;2023-02-15T06:19:21;14.93;;;12.60;;
13973;SDS011;7060;43.770;4.008;2023-02-15T06:21:49;17.43;;;12.63;;
13973;SDS011;7060;43.770;4.008;2023-02-15T06:24:17;16.97;;;11.87;;
13973;SDS011;7060;43.770;4.008;2023-02-15T06:26:46;16.93;;;12.70;;
13973;SDS011;7060;43.770;4.008;2023-02-15T06:29:15;17.90;;;13.53;;
13973;SDS011;7060;43.770;4.008;2023-02-15T06:31:43;14.00;;;11.53;;
13973;SDS011;7060;43.770;4.008;2023-02-15T06:34:13;17.40;;;12.73;;
13973;SDS011;7060;43.770;4.008;2023-02-15T06:36:41;15.23;;;11.80;;
13973;SDS011;7060;43.770;4.008;2023-02-15T06:39:10;18.33;;;13.53;;
13973;SDS011;7060;43.770;4.008;2023-02-15T06:41:38;17.10;;;13.60;;
13973;SDS011;7060;43.770;4.008;2023-02-15T06:44:07;16.73;;;13.47;;
13973;SDS011;7060;43.770;4.008;2023-02-15T06:46:35;14.60;;;12.47;;
13973;SDS011;7060;43.770;4.008;2023-02-15T06:49:04;17.83;;;13.30;;
13973;SDS011;7060;43.770;4.008;2023-02-15T06:51:34;15.80;;;12.70;;
13973;SDS011;7060;43.770;4.008;2023-02-15T06:54:02;15.40;;;12.30;;
13973;SDS011;7060;43.770;4.008;2023-02-15T06:56:31;15.97;;;12.83;;
13973;SDS011;7060;43.770;4.008;2023-02-15T06:58:59;15.00;;;11.90;;
13973;SDS011;7060;43.770;4.008;2023-02-15T07:01:28;19.40;;;12.43;;
13973;SDS011;7060;43.770;4.008;2023-02-15T07:03:56;16.17;;;13.13;;
13973;SDS011;7060;43.770;4.008;2023-02-15T07:06:25;17.93;;;12.63;;
13973;SDS011;7060;43.770;4.008;2023-02-15T07:08:55;14.40;;;11.57;;
13973;SDS011;7060;43.770;4.008;2023-02-15T07:11:23;16.57;;;12.23;;
13973;SDS011;7060;43.770;4.008;2023-02-15T07:14:23;16.33;;;14.00;;
13973;SDS011;7060;43.770;4.008;2023-02-15T07:16:54;19.30;;;12.13;;
13973;SDS011;7060;43.770;4.008;2023-02-15T07:19:23;19.37;;;12.53;;
13973;SDS011;7060;43.770;4.008;2023-02-15T07:21:51;27.23;;;13.33;;
13973;SDS011;7060;43.770;4.008;2023-02-15T07:24:21;16.27;;;12.90;;
13973;SDS011;7060;43.770;4.008;2023-02-15T07:26:49;22.93;;;13.67;;
13973;SDS011;7060;43.770;4.008;2023-02-15T07:29:18;15.73;;;13.43;;
13973;SDS011;7060;43.770;4.008;2023-02-15T07:31:46;18.67;;;14.57;;
13973;SDS011;7060;43.770;4.008;2023-02-15T07:34:15;17.13;;;12.97;;
13973;SDS011;7060;43.770;4.008;2023-02-15T07:36:44;16.70;;;12.57;;
13973;SDS011;7060;43.770;4.008;2023-02-15T07:39:13;16.50;;;12.87;;
13973;SDS011;7060;43.770;4.008;2023-02-15T07:41:43;19.83;;;12.40;;
13973;SDS011;7060;43.770;4.008;2023-02-15T07:44:12;15.87;;;12.83;;
13973;SDS011;7060;43.770;4.008;2023-02-15T07:46:42;17.57;;;12.70;;
13973;SDS011;7060;43.770;4.008;2023-02-15T07:49:11;17.13;;;13.20;;
13973;SDS011;7060;43.770;4.008;2023-02-15T07:51:39;17.00;;;13.83;;
13973;SDS011;7060;43.770;4.008;2023-02-15T07:54:08;20.20;;;13.37;;
13973;SDS011;7060;43.770;4.008;2023-02-15T07:56:36;17.33;;;12.77;;
13973;SDS011;7060;43.770;4.008;2023-02-15T07:59:06;19.90;;;14.03;;
13973;SDS011;7060;43.770;4.008;2023-02-15T08:01:36;19.23;;;13.97;;
13973;SDS011;7060;43.770;4.008;2023-02-15T08:04:06;17.30;;;13.77;;
13973;SDS011;7060;43.770;4.008;2023-02-15T08:06:36;16.03;;;12.57;;
13973;SDS011;7060;43.770;4.008;2023-02-15T08:09:11;14.80;;;12.27;;
13973;SDS011;7060;43.770;4.008;2023-02-15T08:11:43;17.37;;;12.53;;
13973;SDS011;7060;43.770;4.008;2023-02-15T08:14:14;18.20;;;13.23;;
13973;SDS011;7060;43.770;4.008;2023-02-15T08:16:48;16.47;;;12.87;;
13973;SDS011;7060;43.770;4.008;2023-02-15T08:19:18;15.20;;;12.17;;
13973;SDS011;7060;43.770;4.008;2023-02-15T08:21:49;13.23;;;10.87;;
13973;SDS011;7060;43.770;4.008;2023-02-15T08:24:24;14.47;;;12.23;;
13973;SDS011;7060;43.770;4.008;2023-02-15T08:26:56;14.00;;;10.97;;
13973;SDS011;7060;43.770;4.008;2023-02-15T08:29:27;12.73;;;10.67;;
13973;SDS011;7060;43.770;4.008;2023-02-15T08:31:57;13.87;;;11.27;;
13973;SDS011;7060;43.770;4.008;2023-02-15T08:34:29;15.17;;;10.83;;
13973;SDS011;7060;43.770;4.008;2023-02-15T08:36:59;14.27;;;10.57;;
13973;SDS011;7060;43.770;4.008;2023-02-15T08:39:28;12.33;;;10.83;;
13973;SDS011;7060;43.770;4.008;2023-02-15T08:41:57;13.47;;;11.30;;
13973;SDS011;7060;43.770;4.008;2023-02-15T08:44:27;12.57;;;10.37;;
13973;SDS011;7060;43.770;4.008;2023-02-15T08:46:56;15.70;;;12.27;;
13973;SDS011;7060;43.770;4.008;2023-02-15T08:49:29;14.10;;;11.57;;
13973;SDS011;7060;43.770;4.008;2023-02-15T08:51:59;14.80;;;12.37;;
13973;SDS011;7060;43.770;4.008;2023-02-15T08:54:27;14.23;;;11.17;;
13973;SDS011;7060;43.770;4.008;2023-02-15T08:56:56;11.30;;;9.30;;
13973;SDS011;7060;43.770;4.008;2023-02-15T08:59:27;11.47;;;9.27;;
13973;SDS011;7060;43.770;4.008;2023-02-15T09:01:55;11.23;;;8.80;;
13973;SDS011;7060;43.770;4.008;2023-02-15T09:04:25;9.70;;;8.70;;
13973;SDS011;7060;43.770;4.008;2023-02-15T09:06:53;9.67;;;8.67;;
13973;SDS011;7060;43.770;4.008;2023-02-15T09:09:22;12.43;;;9.20;;
13973;SDS011;7060;43.770;4.008;2023-02-15T09:11:51;11.50;;;9.47;;
13973;SDS011;7060;43.770;4.008;2023-02-15T09:14:25;11.00;;;9.80;;
13973;SDS011;7060;43.770;4.008;2023-02-15T09:16:55;11.43;;;10.23;;
13973;SDS011;7060;43.770;4.008;2023-02-15T09:19:24;11.43;;;10.23;;
13973;SDS011;7060;43.770;4.008;2023-02-15T09:21:52;13.10;;;11.70;;
13973;SDS011;7060;43.770;4.008;2023-02-15T09:24:21;19.83;;;11.30;;
13973;SDS011;7060;43.770;4.008;2023-02-15T09:26:49;16.40;;;11.77;;
13973;SDS011;7060;43.770;4.008;2023-02-15T09:29:18;13.67;;;11.97;;
13973;SDS011;7060;43.770;4.008;2023-02-15T09:31:49;17.13;;;12.10;;
13973;SDS011;7060;43.770;4.008;2023-02-15T09:34:18;13.50;;;11.40;;
13973;SDS011;7060;43.770;4.008;2023-02-15T09:36:49;15.20;;;12.17;;
13973;SDS011;7060;43.770;4.008;2023-02-15T09:39:20;17.03;;;13.53;;
13973;SDS011;7060;43.770;4.008;2023-02-15T09:42:00;20.57;;;16.47;;
13973;SDS011;7060;43.770;4.008;2023-02-15T09:44:41;23.83;;;17.27;;
13973;SDS011;7060;43.770;4.008;2023-02-15T09:47:28;23.47;;;18.63;;
13973;SDS011;7060;43.770;4.008;2023-02-15T09:50:17;22.13;;;16.77;;
13973;SDS011;7060;43.770;4.008;2023-02-15T09:52:57;19.87;;;14.03;;
13973;SDS011;7060;43.770;4.008;2023-02-15T09:55:38;18.73;;;15.83;;
13973;SDS011;7060;43.770;4.008;2023-02-15T09:58:20;21.93;;;16.17;;
13973;SDS011;7060;43.770;4.008;2023-02-15T10:00:58;17.37;;;15.47;;
13973;SDS011;7060;43.770;4.008;2023-02-15T10:03:36;19.70;;;14.93;;
13973;SDS011;7060;43.770;4.008;2023-02-15T10:06:30;19.20;;;15.13;;
13973;SDS011;7060;43.770;4.008;2023-02-15T10:09:15;18.93;;;14.93;;
13973;SDS011;7060;43.770;4.008;2023-02-15T10:12:03;15.93;;;14.07;;
13973;SDS011;7060;43.770;4.008;2023-02-15T10:14:52;16.63;;;14.43;;
13973;SDS011;7060;43.770;4.008;2023-02-15T10:17:40;16.43;;;14.07;;
13973;SDS011;7060;43.770;4.008;2023-02-15T10:20:23;14.73;;;12.97;;
13973;SDS011;7060;43.770;4.008;2023-02-15T10:23:03;13.87;;;12.33;;
13973;SDS011;7060;43.770;4.008;2023-02-15T10:25:43;14.80;;;13.27;;
13973;SDS011;7060;43.770;4.008;2023-02-15T10:28:17;14.30;;;12.77;;
13973;SDS011;7060;43.770;4.008;2023-02-15T10:30:47;16.83;;;13.97;;
13973;SDS011;7060;43.770;4.008;2023-02-15T10:33:22;15.73;;;13.50;;
13973;SDS011;7060;43.770;4.008;2023-02-15T10:36:05;14.73;;;13.17;;
13973;SDS011;7060;43.770;4.008;2023-02-15T10:38:45;16.20;;;13.43;;
13973;SDS011;7060;43.770;4.008;2023-02-15T10:41:25;14.03;;;12.40;;
13973;SDS011;7060;43.770;4.008;2023-02-15T10:44:07;15.43;;;13.03;;
13973;SDS011;7060;43.770;4.008;2023-02-15T10:46:53;15.20;;;13.07;;
13973;SDS011;7060;43.770;4.008;2023-02-15T10:49:43;13.17;;;11.87;;
13973;SDS011;7060;43.770;4.008;2023-02-15T10:52:27;13.27;;;11.97;;
13973;SDS011;7060;43.770;4.008;2023-02-15T10:55:08;12.60;;;11.30;;
13973;SDS011;7060;43.770;4.008;2023-02-15T10:57:45;14.30;;;12.33;;
13973;SDS011;7060;43.770;4.008;2023-02-15T11:00:22;21.33;;;13.53;;
13973;SDS011;7060;43.770;4.008;2023-02-15T11:03:02;12.70;;;11.40;;
13973;SDS011;7060;43.770;4.008;2023-02-15T11:05:41;13.33;;;11.93;;
13973;SDS011;7060;43.770;4.008;2023-02-15T11:08:18;14.23;;;11.10;;
13973;SDS011;7060;43.770;4.008;2023-02-15T11:10:48;13.30;;;11.07;;
13973;SDS011;7060;43.770;4.008;2023-02-15T11:13:19;10.83;;;9.67;;
13973;SDS011;7060;43.770;4.008;2023-02-15T11:15:53;9.10;;;8.10;;
13973;SDS011;7060;43.770;4.008;2023-02-15T11:18:25;14.67;;;10.90;;
13973;SDS011;7060;43.770;4.008;2023-02-15T11:21:00;12.53;;;10.70;;
13973;SDS011;7060;43.770;4.008;2023-02-15T11:23:33;10.83;;;9.83;;
13973;SDS011;7060;43.770;4.008;2023-02-15T11:26:04;12.53;;;10.03;;
13973;SDS011;7060;43.770;4.008;2023-02-15T11:28:42;10.37;;;8.43;;
13973;SDS011;7060;43.770;4.008;2023-02-15T11:31:16;8.47;;;7.63;;
13973;SDS011;7060;43.770;4.008;2023-02-15T11:33:49;8.27;;;7.40;;
13973;SDS011;7060;43.770;4.008;2023-02-15T11:36:22;7.87;;;6.87;;
13973;SDS011;7060;43.770;4.008;2023-02-15T11:38:56;7.13;;;6.43;;
13973;SDS011;7060;43.770;4.008;2023-02-15T11:41:29;10.77;;;6.77;;
13973;SDS011;7060;43.770;4.008;2023-02-15T11:44:04;7.37;;;5.87;;
13973;SDS011;7060;43.770;4.008;2023-02-15T11:46:36;5.03;;;3.63;;
13973;SDS011;7060;43.770;4.008;2023-02-15T11:49:07;4.77;;;3.40;;
13973;SDS011;7060;43.770;4.008;2023-02-15T11:51:48;4.43;;;2.90;;
13973;SDS011;7060;43.770;4.008;2023-02-15T11:54:21;4.60;;;3.73;;
13973;SDS011;7060;43.770;4.008;2023-02-15T11:56:55;4.40;;;3.93;;
13973;SDS011;7060;43.770;4.008;2023-02-15T11:59:29;5.00;;;3.70;;
13973;SDS011;7060;43.770;4.008;2023-02-15T12:02:07;4.07;;;3.47;;
13973;SDS011;7060;43.770;4.008;2023-02-15T12:04:46;4.50;;;3.37;;
13973;SDS011;7060;43.770;4.008;2023-02-15T12:07:19;4.83;;;3.90;;
13973;SDS011;7060;43.770;4.008;2023-02-15T12:09:55;4.20;;;3.80;;
13973;SDS011;7060;43.770;4.008;2023-02-15T12:12:31;4.07;;;3.67;;
13973;SDS011;7060;43.770;4.008;2023-02-15T12:15:02;3.63;;;2.67;;
13973;SDS011;7060;43.770;4.008;2023-02-15T12:17:32;3.50;;;2.97;;
13973;SDS011;7060;43.770;4.008;2023-02-15T12:20:04;3.57;;;2.57;;
13973;SDS011;7060;43.770;4.008;2023-02-15T12:22:49;4.40;;;3.10;;
13973;SDS011;7060;43.770;4.008;2023-02-15T12:25:21;3.77;;;2.80;;
13973;SDS011;7060;43.770;4.008;2023-02-15T12:27:53;5.80;;;3.17;;
13973;SDS011;7060;43.770;4.008;2023-02-15T12:30:24;3.50;;;3.20;;
13973;SDS011;7060;43.770;4.008;2023-02-15T12:35:34;5.73;;;3.53;;
13973;SDS011;7060;43.770;4.008;2023-02-15T12:38:05;3.47;;;3.13;;
13973;SDS011;7060;43.770;4.008;2023-02-15T12:40:57;2.90;;;2.60;;
13973;SDS011;7060;43.770;4.008;2023-02-15T12:43:29;4.40;;;3.40;;
13973;SDS011;7060;43.770;4.008;2023-02-15T12:46:17;3.90;;;3.50;;
13973;SDS011;7060;43.770;4.008;2023-02-15T12:51:47;6.07;;;3.83;;
13973;SDS011;7060;43.770;4.008;2023-02-15T12:57:15;4.70;;;3.07;;
13973;SDS011;7060;43.770;4.008;2023-02-15T12:59:50;4.03;;;3.23;;
13973;SDS011;7060;43.770;4.008;2023-02-15T13:02:21;4.30;;;2.70;;
13973;SDS011;7060;43.770;4.008;2023-02-15T13:04:55;4.80;;;3.10;;
13973;SDS011;7060;43.770;4.008;2023-02-15T13:07:29;5.17;;;3.70;;
13973;SDS011;7060;43.770;4.008;2023-02-15T13:09:59;6.03;;;3.50;;
13973;SDS011;7060;43.770;4.008;2023-02-15T13:12:29;4.20;;;3.73;;
13973;SDS011;7060;43.770;4.008;2023-02-15T13:15:00;5.37;;;3.67;;
13973;SDS011;7060;43.770;4.008;2023-02-15T13:17:31;4.50;;;4.03;;
13973;SDS011;7060;43.770;4.008;2023-02-15T13:20:02;4.87;;;3.60;;
13973;SDS011;7060;43.770;4.008;2023-02-15T13:22:38;4.20;;;3.60;;
13973;SDS011;7060;43.770;4.008;2023-02-15T13:25:11;4.43;;;3.70;;
13973;SDS011;7060;43.770;4.008;2023-02-15T13:27:44;5.00;;;4.33;;
13973;SDS011;7060;43.770;4.008;2023-02-15T13:30:25;5.33;;;4.27;;
13973;SDS011;7060;43.770;4.008;2023-02-15T13:33:00;4.33;;;3.93;;
13973;SDS011;7060;43.770;4.008;2023-02-15T13:35:36;6.40;;;3.60;;
13973;SDS011;7060;43.770;4.008;2023-02-15T13:38:14;5.43;;;3.60;;
13973;SDS011;7060;43.770;4.008;2023-02-15T13:40:57;4.07;;;3.67;;
13973;SDS011;7060;43.770;4.008;2023-02-15T13:43:35;5.23;;;4.00;;
13973;SDS011;7060;43.770;4.008;2023-02-15T13:46:18;3.93;;;3.53;;
13973;SDS011;7060;43.770;4.008;2023-02-15T13:48:56;6.23;;;4.43;;
13973;SDS011;7060;43.770;4.008;2023-02-15T13:51:37;6.60;;;3.90;;
13973;SDS011;7060;43.770;4.008;2023-02-15T13:54:25;4.83;;;4.30;;
13973;SDS011;7060;43.770;4.008;2023-02-15T13:57:05;4.47;;;4.07;;
13973;SDS011;7060;43.770;4.008;2023-02-15T13:59:53;4.87;;;4.00;;
13973;SDS011;7060;43.770;4.008;2023-02-15T14:06:03;5.60;;;4.00;;
13973;SDS011;7060;43.770;4.008;2023-02-15T14:08:58;5.17;;;4.30;;
13973;SDS011;7060;43.770;4.008;2023-02-15T14:11:38;7.37;;;4.63;;
13973;SDS011;7060;43.770;4.008;2023-02-15T14:14:23;6.47;;;5.53;;
13973;SDS011;7060;43.770;4.008;2023-02-15T14:17:02;6.70;;;5.30;;
13973;SDS011;7060;43.770;4.008;2023-02-15T14:19:39;5.97;;;5.33;;
13973;SDS011;7060;43.770;4.008;2023-02-15T14:22:18;6.83;;;5.67;;
13973;SDS011;7060;43.770;4.008;2023-02-15T14:24:59;5.17;;;4.67;;
13973;SDS011;7060;43.770;4.008;2023-02-15T14:27:43;5.53;;;4.87;;
13973;SDS011;7060;43.770;4.008;2023-02-15T14:30:21;7.00;;;5.60;;
13973;SDS011;7060;43.770;4.008;2023-02-15T14:32:57;5.77;;;5.27;;
13973;SDS011;7060;43.770;4.008;2023-02-15T14:35:29;10.00;;;4.97;;
13973;SDS011;7060;43.770;4.008;2023-02-15T14:38:00;6.53;;;4.93;;
13973;SDS011;7060;43.770;4.008;2023-02-15T14:40:38;5.77;;;4.50;;
13973;SDS011;7060;43.770;4.008;2023-02-15T14:43:40;5.67;;;4.63;;
13973;SDS011;7060;43.770;4.008;2023-02-15T14:46:25;5.70;;;5.00;;
13973;SDS011;7060;43.770;4.008;2023-02-15T14:49:05;5.97;;;5.37;;
13973;SDS011;7060;43.770;4.008;2023-02-15T14:51:58;6.30;;;4.70;;
13973;SDS011;7060;43.770;4.008;2023-02-15T14:57:26;8.10;;;5.43;;
13973;SDS011;7060;43.770;4.008;2023-02-15T15:03:17;6.30;;;5.53;;
13973;SDS011;7060;43.770;4.008;2023-02-15T15:05:53;7.57;;;4.83;;
13973;SDS011;7060;43.770;4.008;2023-02-15T15:08:29;5.43;;;4.90;;
13973;SDS011;7060;43.770;4.008;2023-02-15T15:14:10;5.90;;;5.27;;
13973;SDS011;7060;43.770;4.008;2023-02-15T15:16:54;9.43;;;6.37;;
13973;SDS011;7060;43.770;4.008;2023-02-15T15:22:36;8.03;;;5.97;;
13973;SDS011;7060;43.770;4.008;2023-02-15T15:25:08;5.07;;;4.57;;
13973;SDS011;7060;43.770;4.008;2023-02-15T15:42:57;5.03;;;4.37;;
13973;SDS011;7060;43.770;4.008;2023-02-15T15:45:47;4.50;;;4.07;;
13973;SDS011;7060;43.770;4.008;2023-02-15T15:48:33;5.13;;;3.60;;
13973;SDS011;7060;43.770;4.008;2023-02-15T15:51:05;3.27;;;2.97;;
13973;SDS011;7060;43.770;4.008;2023-02-15T15:53:39;6.10;;;3.27;;
13973;SDS011;7060;43.770;4.008;2023-02-15T15:56:13;3.90;;;3.07;;
13973;SDS011;7060;43.770;4.008;2023-02-15T15:58:47;3.00;;;2.57;;
13973;SDS011;7060;43.770;4.008;2023-02-15T16:01:24;3.37;;;2.40;;
13973;SDS011;7060;43.770;4.008;2023-02-15T16:03:56;5.77;;;2.47;;